Time;durP1;ratioP1;P1;durP2;ratioP2;P2;SDS_P1;SDS_P2;PMS_P1;PMS_P2;Temp;Humidity;BMP_temperature;BMP_pressure;BME280_temperature;BME280_humidity;BME280_pressure;Samples;Min_cycle;Max_cycle;Signal;HPM_P1;HPM_P2
2022/11/05 00:11:13;;;;;;;1.90;1.60;;;13.50;86.70;;;;;;4989592;28;21071;-71
2022/11/05 00:19:20;;;;;;;2.17;1.50;;;13.50;86.80;;;;;;4988354;28;20528;-70
2022/11/05 00:27:21;;;;;;;2.07;1.63;;;13.40;86.60;;;;;;4986943;28;20445;-70
2022/11/05 00:29:49;;;;;;;2.90;2.20;;;13.40;86.60;;;;;;4961819;28;20558;-70
2022/11/05 00:32:18;;;;;;;1.90;1.70;;;13.40;86.60;;;;;;4986488;28;20536;-70
2022/11/05 00:34:46;;;;;;;2.00;1.50;;;13.40;86.30;;;;;;4986931;28;20477;-70
2022/11/05 00:37:16;;;;;;;2.60;2.33;;;13.40;86.50;;;;;;4981108;28;20865;-70
2022/11/05 00:39:44;;;;;;;2.37;1.77;;;13.40;86.20;;;;;;4992740;28;21066;-71
2022/11/05 00:45:01;;;;;;;3.07;2.17;;;13.40;86.20;;;;;;4992731;28;20513;-71
2022/11/05 00:50:17;;;;;;;2.07;1.87;;;13.40;86.10;;;;;;5014168;28;21012;-69
2022/11/05 00:52:58;;;;;;;3.30;1.87;;;13.40;86.10;;;;;;5006524;28;20449;-68
2022/11/05 00:55:32;;;;;;;1.83;1.73;;;13.40;86.00;;;;;;5027265;28;20436;-69
2022/11/05 00:58:02;;;;;;;2.43;2.23;;;13.40;86.20;;;;;;4999861;28;21153;-69
2022/11/05 01:00:31;;;;;;;1.90;1.70;;;13.40;86.00;;;;;;4984541;28;20450;-68
2022/11/05 01:03:01;;;;;;;1.97;1.83;;;13.40;86.00;;;;;;4986152;28;20512;-69
2022/11/05 01:05:31;;;;;;;2.10;1.90;;;13.40;85.90;;;;;;4978578;28;20470;-69
2022/11/05 01:08:01;;;;;;;4.23;2.17;;;13.40;85.80;;;;;;4987615;28;20727;-69
2022/11/05 01:10:30;;;;;;;5.00;2.10;;;13.40;86.00;;;;;;4982649;28;20465;-69
2022/11/05 01:12:59;;;;;;;2.20;2.00;;;13.40;85.80;;;;;;4985450;28;21071;-69
2022/11/05 01:15:27;;;;;;;2.63;2.20;;;13.40;85.80;;;;;;4984441;28;20450;-69
2022/11/05 01:17:56;;;;;;;2.67;2.47;;;13.40;85.70;;;;;;4986963;28;20495;-68
2022/11/05 01:20:24;;;;;;;2.77;2.57;;;13.40;85.60;;;;;;4981983;28;21291;-70
2022/11/05 01:23:12;;;;;;;2.10;1.90;;;13.30;85.60;;;;;;4981514;28;20448;-69
2022/11/05 01:26:00;;;;;;;1.73;1.63;;;13.30;85.50;;;;;;4991264;28;20991;-68
2022/11/05 01:28:50;;;;;;;2.30;2.20;;;13.40;85.70;;;;;;4988066;28;20524;-68
2022/11/05 01:31:19;;;;;;;1.70;1.60;;;13.30;85.60;;;;;;4989590;28;20442;-70
2022/11/05 01:33:47;;;;;;;1.80;1.70;;;13.30;85.60;;;;;;4997456;28;20976;-68
2022/11/05 01:36:16;;;;;;;2.40;1.97;;;13.40;85.60;;;;;;5001802;28;20484;-69
2022/11/05 01:38:46;;;;;;;2.03;1.83;;;13.30;85.50;;;;;;4981035;28;20889;-70
2022/11/05 01:41:14;;;;;;;1.97;1.40;;;13.30;85.40;;;;;;4973966;28;20472;-69
2022/11/05 01:43:48;;;;;;;1.93;1.83;;;13.30;85.40;;;;;;4984340;28;20528;-67
2022/11/05 01:46:19;;;;;;;2.20;2.03;;;13.30;85.40;;;;;;4983002;28;20980;-68
2022/11/05 01:48:51;;;;;;;2.03;1.80;;;13.30;85.50;;;;;;4980763;28;20473;-69
2022/11/05 01:51:28;;;;;;;2.00;1.80;;;13.40;85.50;;;;;;4988259;28;20492;-69
2022/11/05 01:54:00;;;;;;;1.90;1.80;;;13.30;85.30;;;;;;4980675;28;20465;-68
2022/11/05 01:56:34;;;;;;;1.77;1.67;;;13.40;85.40;;;;;;4983719;28;20455;-69
2022/11/05 01:59:07;;;;;;;2.43;1.93;;;13.30;85.30;;;;;;4988235;28;20484;-69
2022/11/05 02:01:36;;;;;;;1.80;1.70;;;13.30;85.30;;;;;;4988694;28;20815;-69
2022/11/05 02:04:08;;;;;;;3.50;1.70;;;13.30;85.30;;;;;;5004146;28;20476;-69
2022/11/05 02:06:44;;;;;;;1.70;1.60;;;13.30;85.30;;;;;;5008780;28;20453;-69
2022/11/05 02:09:20;;;;;;;2.00;1.70;;;13.30;85.30;;;;;;5021553;28;20464;-70
2022/11/05 02:11:51;;;;;;;2.90;1.90;;;13.30;85.20;;;;;;5006984;28;20451;-69
2022/11/05 02:14:19;;;;;;;1.90;1.70;;;13.30;85.20;;;;;;5006499;28;20476;-69
2022/11/05 02:16:54;;;;;;;1.60;1.50;;;13.30;85.20;;;;;;5008020;28;20719;-69
2022/11/05 02:22:38;;;;;;;2.00;1.77;;;13.30;85.10;;;;;;4917171;29;20519;-70
2022/11/05 02:25:31;;;;;;;2.10;1.70;;;13.30;85.20;;;;;;4944971;29;20560;-72
2022/11/05 02:28:24;;;;;;;1.67;1.50;;;13.30;85.20;;;;;;4931846;29;20445;-64
2022/11/05 02:31:04;;;;;;;1.63;1.53;;;13.30;85.20;;;;;;4900382;29;20449;-64
2022/11/05 02:33:38;;;;;;;1.70;1.60;;;13.30;85.20;;;;;;4909103;29;20879;-64
2022/11/05 02:36:24;;;;;;;2.23;1.47;;;13.30;85.10;;;;;;4899309;29;20577;-64
2022/11/05 02:39:06;;;;;;;1.47;1.37;;;13.30;85.00;;;;;;4942287;23;20583;-68
2022/11/05 02:41:43;;;;;;;1.60;1.50;;;13.30;85.00;;;;;;4943371;28;20642;-67
2022/11/05 02:44:22;;;;;;;1.57;1.47;;;13.30;85.00;;;;;;4927106;28;20476;-69
2022/11/05 02:46:58;;;;;;;2.27;1.53;;;13.30;85.00;;;;;;4932610;29;20509;-69
2022/11/05 02:49:37;;;;;;;1.60;1.50;;;13.30;85.00;;;;;;4932208;28;20500;-68
2022/11/05 02:52:12;;;;;;;1.60;1.50;;;13.30;84.90;;;;;;4932874;29;20534;-69
2022/11/05 02:54:51;;;;;;;1.63;1.53;;;13.30;84.90;;;;;;4957441;28;20539;-69
2022/11/05 02:57:21;;;;;;;2.20;1.50;;;13.20;84.80;;;;;;4931871;29;20969;-69
2022/11/05 02:59:59;;;;;;;1.80;1.20;;;13.30;84.80;;;;;;4925526;29;20507;-67
2022/11/05 03:02:29;;;;;;;1.87;1.60;;;13.30;84.80;;;;;;4931935;29;20523;-69
2022/11/05 03:04:58;;;;;;;3.33;1.70;;;13.30;84.80;;;;;;4931070;29;20983;-69
2022/11/05 03:07:45;;;;;;;1.93;1.70;;;13.20;84.70;;;;;;4931108;29;20989;-69
2022/11/05 03:10:33;;;;;;;1.83;1.73;;;13.30;84.90;;;;;;4933639;29;20481;-69
2022/11/05 03:13:14;;;;;;;1.83;1.40;;;13.30;84.80;;;;;;4933639;29;20433;-70
2022/11/05 03:15:50;;;;;;;1.87;1.77;;;13.20;84.70;;;;;;4931541;29;20519;-69
2022/11/05 03:18:26;;;;;;;1.87;1.77;;;13.30;84.80;;;;;;4936694;28;20500;-69
2022/11/05 03:21:01;;;;;;;1.70;1.40;;;13.20;84.70;;;;;;4945590;28;20440;-68
2022/11/05 03:23:35;;;;;;;1.60;1.50;;;13.20;84.70;;;;;;4950948;28;20459;-67
2022/11/05 03:26:10;;;;;;;1.77;1.60;;;13.20;84.60;;;;;;4952164;28;20634;-67
2022/11/05 03:28:41;;;;;;;2.57;1.93;;;13.20;84.60;;;;;;4926266;28;20529;-68
2022/11/05 03:31:13;;;;;;;1.83;1.73;;;13.20;84.70;;;;;;4929041;29;20480;-68
2022/11/05 03:33:44;;;;;;;2.43;1.97;;;13.20;84.50;;;;;;4931354;29;20502;-69
2022/11/05 03:36:19;;;;;;;1.70;1.60;;;13.20;84.60;;;;;;4928655;29;20449;-69
2022/11/05 03:38:51;;;;;;;2.37;1.67;;;13.20;84.50;;;;;;4931807;29;21007;-69
2022/11/05 03:41:22;;;;;;;2.23;2.03;;;13.20;84.50;;;;;;4936522;29;20547;-69
2022/11/05 03:43:56;;;;;;;2.10;1.90;;;13.20;84.50;;;;;;4931458;29;20492;-69
2022/11/05 03:46:29;;;;;;;1.53;1.37;;;13.20;84.60;;;;;;4950318;28;20509;-69
2022/11/05 03:49:03;;;;;;;1.40;1.30;;;13.20;84.40;;;;;;4963026;28;20837;-68
2022/11/05 03:51:42;;;;;;;2.00;1.90;;;13.20;84.40;;;;;;4931551;29;20498;-69
2022/11/05 03:54:11;;;;;;;1.60;1.50;;;13.20;84.40;;;;;;4933904;29;20468;-69
2022/11/05 03:56:46;;;;;;;2.13;1.70;;;13.20;84.50;;;;;;4931701;29;20444;-68
2022/11/05 03:59:14;;;;;;;1.40;1.30;;;13.20;84.40;;;;;;4958965;28;20542;-69
2022/11/05 04:01:43;;;;;;;1.70;1.60;;;13.20;84.30;;;;;;4930347;29;20539;-68
2022/11/05 04:04:13;;;;;;;2.47;2.03;;;13.20;84.40;;;;;;4936773;28;20467;-69
2022/11/05 04:14:58;;;;;;;1.83;1.73;;;13.10;84.20;;;;;;4899634;29;20876;-70
2022/11/05 04:17:25;;;;;;;2.03;1.83;;;13.10;84.20;;;;;;4929936;29;20974;-69
2022/11/05 04:25:26;;;;;;;2.37;1.83;;;13.10;84.20;;;;;;4944993;28;20873;-69
2022/11/05 04:27:58;;;;;;;2.00;1.80;;;13.10;84.10;;;;;;4953104;28;20869;-69
2022/11/05 04:30:26;;;;;;;2.10;1.80;;;13.10;84.10;;;;;;4957009;28;20876;-69
2022/11/05 04:33:03;;;;;;;1.83;1.70;;;13.10;84.00;;;;;;4928749;28;20473;-68
2022/11/05 04:35:35;;;;;;;2.13;1.63;;;13.10;84.00;;;;;;4937213;28;20954;-68
2022/11/05 04:38:04;;;;;;;1.93;1.83;;;13.10;83.90;;;;;;4928246;28;20995;-69
2022/11/05 04:40:33;;;;;;;2.20;2.00;;;13.10;84.10;;;;;;4931033;29;20460;-70
2022/11/05 04:43:01;;;;;;;1.60;1.50;;;13.10;83.90;;;;;;4929744;29;20475;-70
2022/11/05 04:45:34;;;;;;;1.90;1.67;;;13.10;84.20;;;;;;4925113;29;20499;-70
2022/11/05 04:48:03;;;;;;;3.80;1.50;;;13.10;84.00;;;;;;4929080;29;20468;-72
2022/11/05 04:50:33;;;;;;;2.20;1.90;;;13.10;84.00;;;;;;4929727;29;20502;-73
2022/11/05 04:53:02;;;;;;;1.70;1.60;;;13.10;84.00;;;;;;4941514;29;20539;-74
2022/11/05 04:55:30;;;;;;;2.57;2.30;;;13.10;83.90;;;;;;4930751;29;20447;-74
2022/11/05 04:57:58;;;;;;;2.67;1.97;;;13.10;84.00;;;;;;4928861;29;20977;-75
2022/11/05 05:00:27;;;;;;;2.60;1.63;;;13.10;83.90;;;;;;4927728;29;20475;-72
2022/11/05 05:02:55;;;;;;;1.60;1.50;;;13.10;83.80;;;;;;4928844;29;20468;-75
2022/11/05 05:05:24;;;;;;;1.70;1.60;;;13.10;83.80;;;;;;4945627;28;20452;-73
2022/11/05 05:07:53;;;;;;;2.27;1.60;;;13.10;83.80;;;;;;4928137;29;20551;-74
2022/11/05 05:10:22;;;;;;;1.83;1.67;;;13.10;83.80;;;;;;4928759;29;20492;-73
2022/11/05 05:12:50;;;;;;;2.20;1.67;;;13.10;83.80;;;;;;4928723;29;20480;-75
2022/11/05 05:15:18;;;;;;;2.20;1.83;;;13.10;83.80;;;;;;4924493;29;20441;-73
2022/11/05 05:17:51;;;;;;;1.70;1.60;;;13.10;83.80;;;;;;4929216;29;20440;-73
2022/11/05 05:23:06;;;;;;;1.67;1.57;;;13.00;83.60;;;;;;4925342;29;20936;-74
2022/11/05 05:25:35;;;;;;;2.10;1.73;;;13.00;83.60;;;;;;4937860;29;20445;-74
2022/11/05 05:28:04;;;;;;;2.10;1.53;;;13.10;83.70;;;;;;4929817;29;21027;-74
2022/11/05 05:30:32;;;;;;;2.03;1.93;;;13.00;83.60;;;;;;4956801;28;20460;-73
2022/11/05 05:33:02;;;;;;;2.47;1.93;;;13.00;83.60;;;;;;4944140;28;20575;-74
2022/11/05 05:35:31;;;;;;;1.63;1.53;;;13.00;83.60;;;;;;4956765;28;20467;-74
2022/11/05 05:37:59;;;;;;;2.27;1.90;;;13.00;83.60;;;;;;4930666;28;21069;-74
2022/11/05 05:40:29;;;;;;;2.63;2.07;;;13.00;83.50;;;;;;4931158;29;20468;-75
2022/11/05 05:42:57;;;;;;;2.23;1.70;;;13.00;83.50;;;;;;4948325;29;20464;-74
2022/11/05 05:45:26;;;;;;;1.60;1.50;;;13.00;83.50;;;;;;4946384;28;20514;-75
2022/11/05 05:47:55;;;;;;;2.17;1.97;;;13.00;83.50;;;;;;4931852;29;21018;-74
2022/11/05 05:50:23;;;;;;;2.20;1.87;;;13.00;83.50;;;;;;4931833;29;20452;-74
2022/11/05 05:52:52;;;;;;;2.20;1.73;;;13.00;83.50;;;;;;4929170;29;20456;-73
2022/11/05 05:55:20;;;;;;;1.93;1.60;;;13.00;83.50;;;;;;4932021;29;20449;-73
2022/11/05 05:57:50;;;;;;;1.80;1.70;;;13.00;83.40;;;;;;4945243;29;20484;-73
2022/11/05 06:00:19;;;;;;;3.00;1.87;;;13.00;83.40;;;;;;4933063;29;21065;-74
2022/11/05 06:02:49;;;;;;;2.00;1.80;;;13.00;83.30;;;;;;4930277;29;20528;-73
2022/11/05 06:05:18;;;;;;;2.13;1.60;;;13.00;83.30;;;;;;4932146;28;20848;-73
2022/11/05 06:07:46;;;;;;;1.60;1.50;;;13.00;83.40;;;;;;4929517;29;20468;-69
2022/11/05 06:10:14;;;;;;;1.80;1.50;;;12.90;83.20;;;;;;4930997;29;20462;-68
2022/11/05 06:12:43;;;;;;;1.63;1.53;;;12.90;83.20;;;;;;4938853;28;20472;-68
2022/11/05 06:15:13;;;;;;;1.73;1.60;;;13.00;83.30;;;;;;4930882;29;20453;-69
2022/11/05 06:17:43;;;;;;;1.77;1.67;;;12.90;83.30;;;;;;4931485;29;20483;-69
2022/11/05 06:20:13;;;;;;;2.30;1.70;;;12.90;83.20;;;;;;4930773;29;20816;-69
2022/11/05 06:22:42;;;;;;;2.30;1.50;;;12.90;83.20;;;;;;4930614;29;20873;-68
2022/11/05 06:25:10;;;;;;;1.97;1.77;;;12.90;83.20;;;;;;4931630;29;20540;-69
2022/11/05 06:27:39;;;;;;;3.20;1.70;;;12.90;83.20;;;;;;4929853;29;21054;-68
2022/11/05 06:30:09;;;;;;;2.17;1.73;;;12.90;83.10;;;;;;4947124;28;20535;-69
2022/11/05 06:32:39;;;;;;;3.10;1.70;;;12.90;83.10;;;;;;4928227;29;20484;-67
2022/11/05 06:35:08;;;;;;;1.63;1.53;;;12.90;83.10;;;;;;4947349;29;20444;-68
2022/11/05 06:37:37;;;;;;;2.13;1.97;;;12.90;83.10;;;;;;4930532;29;20543;-68
2022/11/05 06:40:07;;;;;;;1.37;1.27;;;12.90;83.00;;;;;;4931263;29;20457;-69
2022/11/05 06:42:35;;;;;;;2.13;1.93;;;12.90;83.10;;;;;;4925138;29;20975;-69
2022/11/05 06:45:04;;;;;;;2.00;1.43;;;12.90;83.10;;;;;;4931170;29;20435;-69
2022/11/05 06:47:33;;;;;;;1.80;1.70;;;12.90;83.00;;;;;;4941644;28;20464;-69
2022/11/05 06:50:03;;;;;;;1.73;1.50;;;12.90;83.10;;;;;;4947104;28;20453;-69
2022/11/05 06:52:32;;;;;;;1.87;1.77;;;12.90;83.10;;;;;;4940304;28;20467;-69
2022/11/05 06:55:08;;;;;;;1.33;1.20;;;12.90;84.30;;;;;;4962328;28;20452;-68
2022/11/05 06:57:37;;;;;;;1.63;1.53;;;12.90;83.10;;;;;;4958182;28;20995;-68
2022/11/05 07:00:08;;;;;;;1.63;1.50;;;12.90;83.00;;;;;;4932285;29;20551;-69
2022/11/05 07:02:37;;;;;;;1.63;1.47;;;12.90;83.00;;;;;;4914274;29;20444;-68
2022/11/05 07:05:09;;;;;;;1.80;1.50;;;12.80;82.80;;;;;;4942928;29;20531;-68
2022/11/05 07:07:38;;;;;;;2.03;1.77;;;12.90;83.00;;;;;;4913836;29;20468;-68
2022/11/05 07:10:11;;;;;;;3.07;1.47;;;12.90;82.90;;;;;;4929881;29;20465;-68
2022/11/05 07:12:39;;;;;;;1.97;1.57;;;12.90;83.00;;;;;;4931675;29;20503;-69
2022/11/05 07:15:09;;;;;;;1.63;1.53;;;12.80;82.80;;;;;;4932748;29;20436;-68
2022/11/05 07:17:38;;;;;;;1.80;1.60;;;12.80;82.80;;;;;;4938401;28;20445;-69
2022/11/05 07:20:10;;;;;;;1.70;1.60;;;12.80;82.80;;;;;;4958992;28;20587;-67
2022/11/05 07:22:38;;;;;;;1.80;1.47;;;12.80;82.80;;;;;;4946423;28;20576;-68
2022/11/05 07:25:08;;;;;;;1.40;1.30;;;12.80;82.80;;;;;;4950429;28;20987;-67
2022/11/05 07:27:39;;;;;;;2.30;1.37;;;12.80;82.70;;;;;;4929506;29;20483;-68
2022/11/05 07:30:10;;;;;;;2.63;1.50;;;12.80;82.80;;;;;;4930204;29;20475;-69
2022/11/05 07:32:39;;;;;;;1.50;1.40;;;12.80;82.70;;;;;;4955642;28;20887;-70
2022/11/05 07:35:10;;;;;;;1.90;1.57;;;12.80;82.70;;;;;;4944791;28;20465;-68
2022/11/05 07:37:45;;;;;;;1.70;1.60;;;12.80;82.80;;;;;;4933274;28;20497;-69
2022/11/05 07:40:15;;;;;;;2.60;1.77;;;12.80;82.70;;;;;;4934271;29;20503;-68
2022/11/05 07:42:44;;;;;;;1.80;1.50;;;12.80;82.70;;;;;;4932892;29;20534;-69
2022/11/05 07:45:13;;;;;;;1.47;1.33;;;12.80;82.60;;;;;;4940260;28;20942;-69
2022/11/05 07:47:47;;;;;;;2.10;1.50;;;12.80;82.70;;;;;;4952023;28;20879;-68
2022/11/05 07:50:19;;;;;;;1.17;1.07;;;12.80;82.60;;;;;;4953032;28;21005;-67
2022/11/05 07:52:48;;;;;;;1.60;1.50;;;12.80;82.80;;;;;;4954913;28;20503;-68
2022/11/05 07:55:18;;;;;;;1.40;1.30;;;12.80;82.60;;;;;;4929919;28;21190;-69
2022/11/05 07:57:48;;;;;;;4.10;1.23;;;12.80;82.60;;;;;;4930512;29;20764;-68
2022/11/05 08:00:20;;;;;;;1.57;1.30;;;12.80;82.70;;;;;;4953812;28;20508;-69
2022/11/05 08:02:57;;;;;;;2.00;1.77;;;12.80;82.60;;;;;;4929961;29;20480;-68
2022/11/05 08:05:38;;;;;;;1.47;1.37;;;12.80;82.70;;;;;;4935472;29;20437;-69
2022/11/05 08:08:07;;;;;;;1.83;1.50;;;12.80;82.70;;;;;;4932086;28;20954;-66
2022/11/05 08:10:37;;;;;;;2.47;1.40;;;12.80;82.60;;;;;;4952772;28;20453;-68
2022/11/05 08:13:07;;;;;;;1.57;1.40;;;12.80;82.60;;;;;;4929618;28;20479;-67
2022/11/05 08:15:36;;;;;;;1.50;1.40;;;12.80;82.60;;;;;;4938312;28;20458;-68
2022/11/05 08:18:06;;;;;;;3.50;1.40;;;12.80;82.60;;;;;;4945234;28;20851;-67
2022/11/05 08:20:37;;;;;;;1.87;1.73;;;12.80;82.60;;;;;;4930451;29;20468;-67
2022/11/05 08:23:06;;;;;;;3.63;1.57;;;12.80;82.40;;;;;;4928400;29;20454;-68
2022/11/05 08:25:35;;;;;;;1.87;1.30;;;12.80;82.40;;;;;;4930858;29;20821;-67
2022/11/05 08:28:05;;;;;;;1.47;1.37;;;12.80;82.30;;;;;;4931161;29;20991;-70
2022/11/05 08:30:34;;;;;;;1.40;1.30;;;12.80;82.30;;;;;;4923199;29;20997;-67
2022/11/05 08:33:04;;;;;;;1.60;1.50;;;12.80;82.40;;;;;;4928805;29;21037;-68
2022/11/05 08:35:36;;;;;;;1.73;1.50;;;12.80;82.30;;;;;;4930919;29;20437;-68
2022/11/05 08:38:06;;;;;;;1.87;1.30;;;12.80;82.30;;;;;;4952068;23;21005;-63
2022/11/05 08:40:36;;;;;;;1.33;1.03;;;12.80;82.30;;;;;;4946344;29;20907;-65
2022/11/05 08:43:08;;;;;;;1.87;1.17;;;12.80;82.30;;;;;;4947984;29;20465;-63
2022/11/05 08:45:38;;;;;;;1.77;1.40;;;12.80;82.20;;;;;;4946805;29;20442;-64
2022/11/05 08:48:08;;;;;;;3.67;2.00;;;12.90;82.40;;;;;;4946293;28;20220;-63
2022/11/05 08:50:39;;;;;;;2.37;1.30;;;12.90;81.70;;;;;;4931345;29;20539;-64
2022/11/05 08:53:09;;;;;;;2.10;1.70;;;12.90;81.60;;;;;;4945637;29;20963;-64
2022/11/05 08:55:39;;;;;;;1.80;1.70;;;12.90;81.50;;;;;;4948752;28;20453;-64
2022/11/05 08:58:11;;;;;;;1.30;1.20;;;12.90;81.50;;;;;;4947197;28;20568;-64
2022/11/05 09:00:40;;;;;;;1.40;1.30;;;12.90;81.60;;;;;;4943985;29;20465;-63
2022/11/05 09:03:10;;;;;;;1.90;1.50;;;12.90;81.50;;;;;;4947307;28;20444;-63
2022/11/05 09:05:41;;;;;;;2.03;1.30;;;12.90;81.50;;;;;;4952400;29;20435;-64
2022/11/05 09:08:12;;;;;;;1.30;1.20;;;12.90;81.50;;;;;;4967190;28;20484;-70
2022/11/05 09:10:41;;;;;;;1.30;1.20;;;12.90;81.50;;;;;;4953376;28;20499;-71
2022/11/05 09:13:10;;;;;;;1.37;1.10;;;12.90;81.50;;;;;;4955796;28;20883;-70
2022/11/05 09:15:47;;;;;;;1.93;1.03;;;12.90;81.50;;;;;;4943985;29;20451;-71
2022/11/05 09:18:17;;;;;;;2.57;1.50;;;12.90;81.50;;;;;;4951268;28;20463;-70
2022/11/05 09:20:47;;;;;;;3.43;1.50;;;12.90;81.50;;;;;;4954576;28;20435;-71
2022/11/05 09:23:16;;;;;;;2.73;1.50;;;12.90;81.50;;;;;;4950069;28;20764;-71
2022/11/05 09:25:45;;;;;;;1.73;1.50;;;12.90;81.40;;;;;;4950915;28;20956;-71
2022/11/05 09:28:17;;;;;;;1.87;1.50;;;12.90;81.30;;;;;;4950887;28;20475;-70
2022/11/05 09:30:47;;;;;;;1.97;1.30;;;12.90;81.40;;;;;;4950639;28;20521;-71
2022/11/05 09:33:17;;;;;;;1.50;1.10;;;12.90;81.30;;;;;;4955993;28;20851;-70
2022/11/05 09:35:47;;;;;;;0.90;0.90;;;12.90;81.40;;;;;;4955906;28;20474;-71
2022/11/05 09:38:16;;;;;;;1.47;1.20;;;12.90;81.30;;;;;;4940120;28;20899;-70
2022/11/05 09:40:51;;;;;;;2.43;1.10;;;12.90;81.30;;;;;;4933085;29;20489;-71
2022/11/05 09:43:23;;;;;;;2.20;1.20;;;12.90;81.30;;;;;;4929818;29;20527;-70
2022/11/05 09:46:03;;;;;;;1.43;1.20;;;12.90;81.30;;;;;;4925340;29;20529;-70
2022/11/05 09:48:34;;;;;;;1.10;1.00;;;12.90;81.20;;;;;;4923002;29;21070;-70
2022/11/05 09:51:05;;;;;;;1.67;1.17;;;12.90;81.20;;;;;;4922741;29;20449;-72
2022/11/05 09:53:40;;;;;;;1.57;1.03;;;12.90;81.20;;;;;;4928255;29;20436;-71
2022/11/05 09:56:20;;;;;;;2.03;1.23;;;12.90;81.20;;;;;;4925365;29;20994;-70
2022/11/05 09:58:53;;;;;;;4.20;1.20;;;12.90;81.30;;;;;;4930114;28;20568;-70
2022/11/05 10:01:25;;;;;;;1.83;1.10;;;12.90;81.20;;;;;;4928988;29;20543;-70
2022/11/05 10:03:58;;;;;;;1.33;1.03;;;12.90;81.20;;;;;;4943664;28;20459;-70
2022/11/05 10:06:28;;;;;;;1.47;1.03;;;12.90;81.20;;;;;;4950585;28;21034;-70
2022/11/05 10:09:05;;;;;;;1.37;1.27;;;12.90;81.20;;;;;;4950964;28;20546;-70
2022/11/05 10:11:39;;;;;;;1.60;1.03;;;12.90;81.20;;;;;;4951382;28;20947;-70
2022/11/05 10:14:15;;;;;;;2.40;1.27;;;12.90;81.10;;;;;;4948380;28;21069;-70
2022/11/05 10:16:48;;;;;;;1.30;1.20;;;12.90;80.40;;;;;;4952166;28;20823;-70
2022/11/05 10:19:23;;;;;;;4.30;0.90;;;12.90;80.50;;;;;;4954970;28;20911;-70
2022/11/05 10:22:01;;;;;;;1.47;0.93;;;12.90;80.50;;;;;;4954273;28;20447;-71
2022/11/05 10:24:34;;;;;;;2.30;1.10;;;12.90;80.70;;;;;;4968533;28;20895;-72
2022/11/05 10:27:04;;;;;;;1.33;1.23;;;12.80;80.70;;;;;;4941138;29;20448;-71
2022/11/05 10:29:35;;;;;;;0.87;0.80;;;12.90;80.90;;;;;;4971340;28;20890;-72
2022/11/05 10:32:06;;;;;;;1.40;1.20;;;12.80;80.70;;;;;;4950507;28;20531;-72
2022/11/05 10:34:38;;;;;;;2.10;1.23;;;12.80;80.80;;;;;;4943399;28;20499;-71
2022/11/05 10:37:12;;;;;;;3.27;1.23;;;12.80;80.90;;;;;;4948230;28;20447;-72
2022/11/05 10:39:40;;;;;;;1.07;0.90;;;12.90;80.90;;;;;;4920658;29;20469;-72
2022/11/05 10:42:38;;;;;;;1.03;0.83;;;12.80;80.80;;;;;;4919973;29;21036;-72
2022/11/05 10:45:17;;;;;;;1.50;1.03;;;12.90;80.90;;;;;;4949675;29;20462;-72
2022/11/05 10:48:01;;;;;;;1.63;1.07;;;12.80;80.80;;;;;;4943258;29;20928;-72
2022/11/05 10:50:30;;;;;;;1.60;1.43;;;12.80;80.80;;;;;;4949063;29;20898;-72
2022/11/05 10:53:02;;;;;;;2.10;1.10;;;12.90;80.70;;;;;;4947025;28;20881;-72
2022/11/05 10:55:34;;;;;;;2.50;1.30;;;12.90;80.60;;;;;;4949592;29;20538;-72
2022/11/05 10:58:11;;;;;;;2.23;1.40;;;12.80;80.60;;;;;;4949338;29;20436;-72
2022/11/05 11:00:39;;;;;;;1.33;1.07;;;12.90;80.70;;;;;;4944153;29;20460;-72
2022/11/05 11:03:34;;;;;;;2.33;1.30;;;12.80;80.70;;;;;;4948274;28;20562;-72
2022/11/05 11:06:06;;;;;;;1.30;1.20;;;12.90;82.10;;;;;;4949364;28;20450;-72
2022/11/05 11:08:36;;;;;;;1.67;1.10;;;12.80;80.70;;;;;;4945975;28;20947;-72
2022/11/05 11:11:10;;;;;;;1.17;0.97;;;12.80;80.70;;;;;;4957676;28;20849;-72
2022/11/05 11:14:01;;;;;;;1.70;1.03;;;12.80;80.80;;;;;;4952226;28;20476;-72
2022/11/05 11:16:35;;;;;;;3.10;1.17;;;12.80;80.60;;;;;;4953253;28;20985;-72
2022/11/05 11:19:20;;;;;;;1.63;0.87;;;12.80;80.70;;;;;;4951069;28;20471;-72
2022/11/05 11:22:27;;;;;;;1.10;0.80;;;12.80;80.80;;;;;;4941704;29;20849;-72
2022/11/05 11:24:56;;;;;;;1.20;0.80;;;12.80;80.70;;;;;;4966439;28;20724;-72
2022/11/05 11:27:28;;;;;;;1.77;1.30;;;12.80;81.00;;;;;;4949387;28;20543;-72
2022/11/05 11:29:58;;;;;;;1.03;0.90;;;12.80;80.90;;;;;;4948095;28;20979;-72
2022/11/05 11:32:32;;;;;;;1.33;1.03;;;12.80;80.90;;;;;;4954830;28;20514;-71
2022/11/05 11:35:02;;;;;;;1.60;1.30;;;12.80;80.90;;;;;;4952215;29;20451;-72
2022/11/05 11:37:33;;;;;;;1.20;1.10;;;12.80;80.90;;;;;;4946711;28;20879;-72
2022/11/05 11:40:12;;;;;;;1.17;1.00;;;12.80;81.00;;;;;;4949597;29;20986;-72
2022/11/05 11:42:45;;;;;;;1.47;1.37;;;12.80;80.90;;;;;;4953789;28;20498;-65
2022/11/05 11:45:18;;;;;;;1.50;1.00;;;12.80;82.30;;;;;;4952610;28;20443;-65
2022/11/05 11:47:49;;;;;;;1.73;1.00;;;12.80;81.00;;;;;;4942276;28;20475;-64
2022/11/05 11:50:34;;;;;;;1.30;1.10;;;12.80;80.90;;;;;;4946702;28;20487;-64
2022/11/05 11:53:28;;;;;;;1.57;1.03;;;12.80;81.00;;;;;;4948094;29;20451;-65
2022/11/05 11:56:12;;;;;;;2.00;1.10;;;12.80;81.00;;;;;;4952765;28;20479;-65
2022/11/05 11:58:44;;;;;;;3.70;0.87;;;12.80;80.90;;;;;;4949715;28;20538;-65
2022/11/05 12:01:45;;;;;;;1.43;0.87;;;12.70;80.70;;;;;;4944687;28;20477;-64
2022/11/05 12:04:44;;;;;;;1.37;1.20;;;12.80;80.70;;;;;;4948295;28;20556;-65
2022/11/05 12:07:27;;;;;;;1.23;1.13;;;12.70;80.40;;;;;;4949146;28;20455;-65
2022/11/05 12:10:08;;;;;;;1.30;0.80;;;12.70;80.40;;;;;;4952204;28;20834;-65
2022/11/05 12:12:46;;;;;;;1.20;1.03;;;12.70;80.30;;;;;;4942704;28;20446;-64
2022/11/05 12:15:27;;;;;;;3.50;1.13;;;12.70;80.60;;;;;;4942936;28;20503;-64
2022/11/05 12:18:01;;;;;;;1.80;1.47;;;12.70;80.20;;;;;;4944582;28;20890;-64
2022/11/05 12:20:47;;;;;;;2.13;1.23;;;12.70;80.30;;;;;;4956323;28;20465;-64
2022/11/05 12:23:32;;;;;;;1.40;1.30;;;12.80;81.70;;;;;;4939198;28;20443;-71
2022/11/05 12:26:11;;;;;;;1.13;0.90;;;12.70;80.00;;;;;;4944544;28;20909;-71
2022/11/05 12:29:07;;;;;;;4.60;1.23;;;12.80;80.40;;;;;;4957297;28;20576;-71
2022/11/05 12:32:02;;;;;;;2.33;1.20;;;12.80;80.50;;;;;;4945941;28;20562;-72
2022/11/05 12:34:46;;;;;;;2.10;1.37;;;12.70;80.20;;;;;;4945414;28;20518;-71
2022/11/05 12:37:24;;;;;;;1.47;1.30;;;12.80;79.40;;;;;;4943254;28;20833;-71
2022/11/05 12:40:18;;;;;;;1.37;1.27;;;12.80;81.40;;;;;;4931685;29;20480;-71
2022/11/05 12:42:59;;;;;;;1.37;1.10;;;12.70;79.70;;;;;;4926610;29;20551;-71
2022/11/05 12:45:44;;;;;;;1.60;1.50;;;12.80;80.00;;;;;;4901320;29;21048;-64
2022/11/05 12:48:29;;;;;;;2.50;1.17;;;12.80;80.30;;;;;;4931196;29;20483;-64
2022/11/05 12:51:14;;;;;;;5.47;1.20;;;12.70;80.00;;;;;;4949721;28;20486;-65
2022/11/05 12:53:53;;;;;;;1.77;1.03;;;12.70;79.90;;;;;;4948986;28;20982;-64
2022/11/05 12:56:30;;;;;;;1.37;1.20;;;12.70;79.80;;;;;;4960085;28;20567;-65
2022/11/05 12:59:03;;;;;;;2.00;0.80;;;12.70;80.00;;;;;;4950913;28;20483;-65
2022/11/05 13:01:36;;;;;;;1.27;0.97;;;12.80;80.30;;;;;;4960319;28;20458;-64
2022/11/05 13:04:13;;;;;;;3.30;1.20;;;12.80;80.20;;;;;;4942922;28;20572;-64
2022/11/05 13:06:46;;;;;;;2.73;0.90;;;12.70;79.80;;;;;;4969450;28;20436;-65
2022/11/05 13:09:19;;;;;;;1.20;1.10;;;12.80;80.00;;;;;;4951046;28;20855;-64
2022/11/05 13:11:52;;;;;;;1.43;1.00;;;12.80;79.40;;;;;;4949989;28;20826;-65
2022/11/05 13:14:25;;;;;;;1.13;1.00;;;12.80;79.90;;;;;;4951255;28;20558;-65
2022/11/05 13:17:00;;;;;;;1.07;0.97;;;12.80;79.40;;;;;;4950043;28;20595;-64
2022/11/05 13:19:32;;;;;;;2.80;1.00;;;12.80;79.50;;;;;;4948420;28;20578;-65
2022/11/05 13:22:10;;;;;;;2.90;0.90;;;12.80;79.40;;;;;;4955573;28;20962;-65
2022/11/05 13:24:47;;;;;;;0.80;0.80;;;12.80;78.80;;;;;;4929219;28;20519;-65
2022/11/05 13:27:34;;;;;;;2.27;1.13;;;12.80;79.30;;;;;;4925984;29;20453;-65
2022/11/05 13:30:06;;;;;;;1.00;0.77;;;12.80;78.80;;;;;;4950364;29;20466;-71
2022/11/05 13:32:38;;;;;;;1.73;1.37;;;12.70;78.50;;;;;;4943537;29;20454;-72
2022/11/05 13:35:14;;;;;;;2.50;0.90;;;12.80;78.40;;;;;;4951427;28;20455;-72
2022/11/05 13:40:41;;;;;;;1.97;1.00;;;12.80;78.70;;;;;;4944105;28;21061;-72
2022/11/05 13:43:25;;;;;;;1.00;0.80;;;12.80;78.90;;;;;;4945647;28;20450;-72
2022/11/05 13:46:14;;;;;;;1.00;0.90;;;12.70;78.70;;;;;;4948113;28;20444;-71
2022/11/05 13:49:15;;;;;;;1.80;1.10;;;12.70;78.40;;;;;;4959160;28;20475;-71
2022/11/05 13:51:56;;;;;;;1.60;1.00;;;12.70;77.80;;;;;;4938188;29;20995;-72
2022/11/05 13:54:53;;;;;;;1.03;1.00;;;12.80;78.50;;;;;;4949729;28;20518;-64
2022/11/05 13:58:03;;;;;;;1.73;0.60;;;12.70;78.60;;;;;;4948584;29;20467;-64
2022/11/05 14:00:36;;;;;;;1.47;0.70;;;12.70;78.50;;;;;;4910367;29;20478;-64
2022/11/05 14:03:13;;;;;;;0.90;0.70;;;12.70;78.10;;;;;;4951708;28;20452;-64
2022/11/05 14:05:49;;;;;;;1.50;0.60;;;12.70;78.80;;;;;;4945495;29;20943;-64
2022/11/05 14:08:20;;;;;;;1.63;0.90;;;12.80;79.10;;;;;;4948261;28;20483;-65
2022/11/05 14:10:59;;;;;;;1.40;1.30;;;12.70;79.10;;;;;;4959629;28;20528;-64